Time;durP1;ratioP1;P1;durP2;ratioP2;P2;SDS_P1;SDS_P2;PMS_P1;PMS_P2;Temp;Humidity;BMP_temperature;BMP_pressure;BME280_temperature;BME280_humidity;BME280_pressure;Samples;Min_cycle;Max_cycle;Signal;HPM_P1;HPM_P2
2022/12/25 00:01:11;;;;;;;2.53;2.20;;;4.50;97.30;;;;;;4968159;28;20438;-89
2022/12/25 00:03:37;;;;;;;1.53;1.43;;;4.50;97.30;;;;;;4983938;28;20725;-89
2022/12/25 00:06:04;;;;;;;1.40;1.30;;;4.50;97.30;;;;;;4967400;28;20445;-89
2022/12/25 00:08:30;;;;;;;1.90;1.80;;;4.50;97.30;;;;;;4967607;28;20448;-89
2022/12/25 00:11:00;;;;;;;2.23;2.03;;;4.40;97.30;;;;;;4968590;28;20786;-88
2022/12/25 00:13:26;;;;;;;1.70;1.60;;;4.40;97.30;;;;;;4972242;28;20996;-87
2022/12/25 00:15:51;;;;;;;5.23;1.73;;;4.40;97.30;;;;;;4972561;28;20479;-89
2022/12/25 00:18:17;;;;;;;4.20;1.20;;;4.30;97.30;;;;;;4981664;28;20190;-88
2022/12/25 00:20:42;;;;;;;2.93;1.80;;;4.30;97.30;;;;;;4969358;28;20273;-89
2022/12/25 00:23:08;;;;;;;1.60;1.53;;;4.30;97.30;;;;;;4977990;28;20593;-88
2022/12/25 00:25:33;;;;;;;2.93;1.97;;;4.30;97.30;;;;;;4966892;28;20575;-88
2022/12/25 00:27:59;;;;;;;1.37;1.27;;;4.30;97.30;;;;;;4966047;28;20183;-88
2022/12/25 00:30:24;;;;;;;2.80;2.60;;;4.30;97.30;;;;;;4971169;28;20614;-87
2022/12/25 00:32:50;;;;;;;1.50;1.43;;;4.20;97.30;;;;;;4990248;28;20214;-91
2022/12/25 00:35:15;;;;;;;3.30;2.70;;;4.20;97.30;;;;;;4985806;28;20201;-90
2022/12/25 00:37:41;;;;;;;2.90;2.50;;;4.10;97.30;;;;;;4977814;28;20183;-92
2022/12/25 00:40:07;;;;;;;2.73;2.43;;;4.00;97.30;;;;;;4990800;28;20190;-90
2022/12/25 00:42:33;;;;;;;1.23;1.13;;;4.00;97.30;;;;;;4992229;28;20186;-91
2022/12/25 00:45:00;;;;;;;3.60;2.13;;;3.90;97.30;;;;;;5000732;28;20480;-88
2022/12/25 00:47:25;;;;;;;13.30;4.33;;;3.90;97.30;;;;;;4985480;28;20190;-88
2022/12/25 00:49:51;;;;;;;1.70;1.70;;;3.80;97.30;;;;;;4973870;28;20481;-88
2022/12/25 00:52:16;;;;;;;1.40;1.30;;;3.80;97.30;;;;;;4958675;28;20525;-88
2022/12/25 00:54:42;;;;;;;1.20;1.10;;;3.80;97.30;;;;;;4979915;28;20577;-89
2022/12/25 00:57:08;;;;;;;1.63;1.57;;;3.70;97.30;;;;;;4972725;28;20653;-89
2022/12/25 00:59:34;;;;;;;1.37;1.27;;;3.70;97.30;;;;;;4963841;28;20677;-88
2022/12/25 01:02:22;;;;;;;1.30;1.20;;;3.70;97.30;;;;;;4973794;28;20187;-88
2022/12/25 01:04:46;;;;;;;1.00;0.90;;;3.60;97.30;;;;;;4970549;28;20908;-89
2022/12/25 01:07:11;;;;;;;3.13;2.73;;;3.60;97.30;;;;;;4984797;28;20426;-87
2022/12/25 01:12:21;;;;;;;1.50;1.40;;;3.50;97.30;;;;;;4987213;28;20340;-88
2022/12/25 01:14:47;;;;;;;1.40;1.30;;;3.40;97.30;;;;;;4984526;28;20446;-88
2022/12/25 01:17:12;;;;;;;2.57;2.03;;;3.40;97.30;;;;;;4981976;28;20190;-86
2022/12/25 01:19:38;;;;;;;2.87;2.33;;;3.40;97.30;;;;;;4968907;28;20196;-89
2022/12/25 01:22:03;;;;;;;1.67;1.57;;;3.40;97.30;;;;;;4974404;28;20182;-87
2022/12/25 01:24:29;;;;;;;2.30;1.53;;;3.40;97.30;;;;;;4971627;28;20228;-84
2022/12/25 01:26:54;;;;;;;5.33;2.03;;;3.30;97.30;;;;;;4975098;28;20182;-87
2022/12/25 01:29:20;;;;;;;3.17;1.50;;;3.30;97.30;;;;;;4967165;28;20855;-88
2022/12/25 01:31:45;;;;;;;2.60;2.30;;;3.30;97.30;;;;;;4969867;28;20182;-87
2022/12/25 01:34:11;;;;;;;1.13;1.03;;;3.20;97.30;;;;;;4971465;28;20808;-88
2022/12/25 01:36:36;;;;;;;1.43;1.33;;;3.20;97.30;;;;;;4969512;28;20174;-88
2022/12/25 01:39:03;;;;;;;4.40;2.50;;;3.20;97.30;;;;;;4972019;28;20178;-87
2022/12/25 01:41:28;;;;;;;2.60;2.40;;;3.10;97.30;;;;;;4972945;28;20186;-88
2022/12/25 01:44:01;;;;;;;1.73;1.67;;;3.10;97.30;;;;;;4969121;28;20566;-88
2022/12/25 01:46:27;;;;;;;1.70;1.60;;;3.00;97.30;;;;;;4985656;28;20237;-87
2022/12/25 01:48:55;;;;;;;1.40;1.30;;;3.00;97.30;;;;;;4965375;28;21072;-89
2022/12/25 01:51:26;;;;;;;1.30;1.20;;;3.00;97.30;;;;;;4968880;28;20450;-87
2022/12/25 01:53:53;;;;;;;1.93;1.83;;;3.00;97.30;;;;;;4962174;28;20516;-87
2022/12/25 01:56:19;;;;;;;1.53;1.37;;;2.90;97.30;;;;;;4973451;28;20441;-88
2022/12/25 01:58:45;;;;;;;1.10;1.00;;;2.90;97.30;;;;;;4967014;28;20880;-87
2022/12/25 02:01:10;;;;;;;7.07;2.33;;;2.80;97.30;;;;;;4965344;28;20430;-88
2022/12/25 02:03:38;;;;;;;2.43;1.30;;;2.70;97.30;;;;;;4966230;28;20235;-88
2022/12/25 02:06:05;;;;;;;1.80;1.70;;;2.70;97.30;;;;;;4967698;28;20266;-88
2022/12/25 02:08:31;;;;;;;2.60;1.97;;;2.60;97.30;;;;;;4969601;28;20743;-89
2022/12/25 02:10:56;;;;;;;1.73;1.53;;;2.60;97.30;;;;;;4966390;28;20469;-90
2022/12/25 02:13:22;;;;;;;1.50;1.40;;;2.60;97.30;;;;;;4967248;28;20760;-88
2022/12/25 02:16:14;;;;;;;1.90;1.80;;;2.60;97.30;;;;;;4971307;28;20179;-88
2022/12/25 02:18:50;;;;;;;26.37;1.50;;;2.60;97.30;;;;;;4968188;28;20268;-87
2022/12/25 02:21:21;;;;;;;1.80;1.70;;;2.50;97.30;;;;;;4981484;28;20429;-87
2022/12/25 02:23:53;;;;;;;3.23;2.47;;;2.50;97.30;;;;;;4968359;28;20512;-88
2022/12/25 02:26:49;;;;;;;1.90;1.10;;;2.50;97.30;;;;;;4985505;28;20422;-88
2022/12/25 02:29:41;;;;;;;1.60;1.50;;;2.40;97.30;;;;;;4960201;28;20473;-88
2022/12/25 02:32:09;;;;;;;1.60;1.50;;;2.40;97.30;;;;;;4969918;28;20756;-87
2022/12/25 02:34:46;;;;;;;2.40;2.20;;;2.40;97.30;;;;;;4970666;28;20446;-89
2022/12/25 02:37:22;;;;;;;2.00;1.90;;;2.40;97.30;;;;;;4971857;28;20414;-88
2022/12/25 02:40:17;;;;;;;4.80;2.50;;;2.30;97.30;;;;;;4967138;28;20459;-89
2022/12/25 03:08:21;;;;;;;1.20;1.10;;;2.20;97.30;;;;;;4973772;28;20440;-87
2022/12/25 03:13:48;;;;;;;1.00;0.90;;;2.10;97.30;;;;;;4970788;28;20499;-88
2022/12/25 03:18:58;;;;;;;1.93;1.83;;;2.00;97.30;;;;;;4985399;28;20520;-86
2022/12/25 03:26:56;;;;;;;1.33;1.23;;;2.00;97.30;;;;;;4973032;28;20425;-88
2022/12/25 03:32:21;;;;;;;1.73;1.63;;;2.00;97.30;;;;;;4971002;28;20987;-88
2022/12/25 03:35:23;;;;;;;1.40;1.30;;;1.90;97.30;;;;;;4969442;28;20484;-87
2022/12/25 04:56:11;;;;;;;1.57;1.50;;;1.90;97.30;;;;;;4990223;28;20498;-85
2022/12/25 04:58:37;;;;;;;2.40;2.20;;;1.80;97.30;;;;;;4960100;28;20529;-84
2022/12/25 05:01:04;;;;;;;1.80;1.70;;;1.80;97.30;;;;;;4958502;28;20517;-84
2022/12/25 05:03:30;;;;;;;1.40;1.30;;;1.80;97.30;;;;;;4956351;28;20421;-88
2022/12/25 05:05:56;;;;;;;3.60;2.60;;;1.80;97.30;;;;;;4959825;28;20456;-87
2022/12/25 05:08:21;;;;;;;2.23;2.03;;;1.80;97.30;;;;;;4959472;28;20545;-84
2022/12/25 05:10:47;;;;;;;4.87;2.33;;;1.80;97.30;;;;;;4957199;28;20190;-85
2022/12/25 05:13:14;;;;;;;2.00;1.90;;;1.80;97.30;;;;;;4958925;28;20692;-87
2022/12/25 05:15:40;;;;;;;1.97;1.87;;;1.80;97.30;;;;;;4954915;28;20960;-85
2022/12/25 05:18:05;;;;;;;2.43;1.80;;;1.80;97.30;;;;;;4954683;28;20417;-85
2022/12/25 05:20:31;;;;;;;2.93;2.23;;;1.80;97.30;;;;;;4952934;28;20444;-86
2022/12/25 05:22:57;;;;;;;1.50;1.30;;;1.80;97.30;;;;;;4969497;28;20216;-85
2022/12/25 05:25:22;;;;;;;1.53;1.43;;;1.80;97.30;;;;;;4954036;28;20282;-89
2022/12/25 05:27:49;;;;;;;2.20;1.33;;;1.80;97.30;;;;;;4955812;28;20558;-85
2022/12/25 05:30:21;;;;;;;1.50;1.40;;;1.80;97.30;;;;;;4954894;28;20206;-85
2022/12/25 05:33:32;;;;;;;1.20;1.10;;;1.80;97.30;;;;;;4959504;28;20972;-88
2022/12/25 05:36:05;;;;;;;1.70;1.70;;;1.80;97.30;;;;;;4956815;28;21032;-90
2022/12/25 05:38:31;;;;;;;8.63;3.07;;;1.70;97.30;;;;;;4960017;28;20603;-87
2022/12/25 05:41:37;;;;;;;1.47;1.37;;;1.70;97.30;;;;;;4971863;28;20493;-87
2022/12/25 05:46:51;;;;;;;2.00;1.77;;;1.60;97.30;;;;;;4973146;28;20487;-85
2022/12/25 05:49:16;;;;;;;2.27;2.07;;;1.60;97.30;;;;;;4951936;28;20458;-85
2022/12/25 05:51:42;;;;;;;4.17;3.93;;;1.60;97.30;;;;;;4971025;28;20252;-85
2022/12/25 05:54:07;;;;;;;1.30;1.20;;;1.60;97.30;;;;;;4969701;28;20233;-86
2022/12/25 05:56:33;;;;;;;1.60;1.50;;;1.60;97.30;;;;;;4980487;28;20182;-85
2022/12/25 05:58:58;;;;;;;2.37;2.17;;;1.60;97.30;;;;;;4951789;28;20202;-88
2022/12/25 06:01:26;;;;;;;3.00;2.80;;;1.60;97.30;;;;;;4973054;28;20194;-87
2022/12/25 06:03:52;;;;;;;1.40;1.27;;;1.60;97.30;;;;;;4959900;28;20278;-85
2022/12/25 06:06:18;;;;;;;2.77;2.40;;;1.60;97.30;;;;;;4960537;28;20470;-85
2022/12/25 06:08:44;;;;;;;2.53;2.33;;;1.60;97.30;;;;;;4958324;28;20637;-89
2022/12/25 06:11:12;;;;;;;1.20;1.10;;;1.70;97.30;;;;;;4972001;28;20432;-85
2022/12/25 06:13:37;;;;;;;1.30;1.20;;;1.70;97.30;;;;;;4960354;28;20610;-83
2022/12/25 06:16:08;;;;;;;1.87;1.67;;;1.80;97.30;;;;;;4959591;28;20441;-87
2022/12/25 06:18:35;;;;;;;1.20;1.10;;;1.80;97.30;;;;;;4957472;28;20206;-85
2022/12/25 06:21:09;;;;;;;7.10;4.90;;;1.90;97.30;;;;;;4957875;28;20430;-86
2022/12/25 06:23:36;;;;;;;1.60;1.50;;;1.90;97.30;;;;;;4980891;28;20468;-87
2022/12/25 06:26:11;;;;;;;2.07;1.93;;;2.00;97.30;;;;;;4957194;28;20449;-88
2022/12/25 06:28:37;;;;;;;1.50;1.40;;;2.00;97.30;;;;;;4961323;28;20585;-89
2022/12/25 06:31:26;;;;;;;1.97;1.87;;;2.00;97.30;;;;;;4971555;28;20442;-85
2022/12/25 06:33:52;;;;;;;1.80;1.67;;;2.00;97.30;;;;;;4960489;28;21026;-88
2022/12/25 06:36:22;;;;;;;1.87;1.77;;;2.00;97.30;;;;;;4960931;28;20414;-87
2022/12/25 06:38:47;;;;;;;1.43;1.37;;;2.00;97.30;;;;;;4961991;28;20281;-86
2022/12/25 06:41:24;;;;;;;10.87;3.70;;;2.00;97.30;;;;;;4959878;28;20591;-85
2022/12/25 06:43:52;;;;;;;1.53;1.43;;;2.10;97.30;;;;;;4963629;28;20677;-85
2022/12/25 06:46:18;;;;;;;1.60;1.50;;;2.10;97.30;;;;;;4969191;28;20448;-87
2022/12/25 06:48:48;;;;;;;2.03;1.90;;;2.10;97.30;;;;;;4956931;28;20481;-83
2022/12/25 06:51:14;;;;;;;1.37;1.27;;;2.10;97.30;;;;;;4962662;28;20922;-87
2022/12/25 06:53:40;;;;;;;3.13;2.93;;;2.20;97.30;;;;;;4964493;28;20663;-86
2022/12/25 06:56:14;;;;;;;1.83;1.73;;;2.10;97.30;;;;;;4961463;28;20465;-85
2022/12/25 06:58:43;;;;;;;6.97;2.53;;;2.10;97.30;;;;;;4961302;28;20579;-87
2022/12/25 07:01:13;;;;;;;1.20;1.10;;;2.10;97.30;;;;;;4967292;28;20454;-87
2022/12/25 07:03:41;;;;;;;1.30;1.20;;;2.20;97.30;;;;;;4955732;28;20435;-85
2022/12/25 07:06:07;;;;;;;1.73;1.63;;;2.20;97.30;;;;;;4957858;28;20542;-85
2022/12/25 07:08:32;;;;;;;1.50;1.40;;;2.20;97.30;;;;;;4957247;28;20603;-86
2022/12/25 07:10:58;;;;;;;2.07;1.93;;;2.20;97.30;;;;;;4959282;28;20227;-86
2022/12/25 07:13:24;;;;;;;2.03;1.90;;;2.20;97.30;;;;;;4959377;28;20473;-86
2022/12/25 07:16:00;;;;;;;1.43;1.33;;;2.20;97.30;;;;;;4949215;28;20670;-86
2022/12/25 07:18:26;;;;;;;1.17;1.10;;;2.30;97.30;;;;;;4943691;28;20203;-86
2022/12/25 07:20:54;;;;;;;1.20;1.10;;;2.30;97.30;;;;;;4969305;28;21175;-84
2022/12/25 07:23:19;;;;;;;3.23;2.10;;;2.40;97.30;;;;;;4958191;28;20443;-87
2022/12/25 07:25:55;;;;;;;1.60;1.50;;;2.40;97.30;;;;;;4958152;29;20814;-85
2022/12/25 07:28:21;;;;;;;3.93;2.93;;;2.40;97.30;;;;;;4951131;28;20293;-87
2022/12/25 07:30:47;;;;;;;1.40;1.30;;;2.50;97.30;;;;;;4957440;28;20457;-85
2022/12/25 07:33:12;;;;;;;1.23;1.13;;;2.50;97.30;;;;;;4952144;28;20203;-87
2022/12/25 07:35:38;;;;;;;1.73;1.57;;;2.50;97.30;;;;;;4977788;28;20190;-88
2022/12/25 07:38:03;;;;;;;1.53;1.43;;;2.60;97.30;;;;;;4979261;28;20179;-84
2022/12/25 07:40:29;;;;;;;2.13;1.97;;;2.60;97.30;;;;;;4954538;28;20207;-85
2022/12/25 07:42:54;;;;;;;1.60;1.50;;;2.70;97.30;;;;;;4969282;28;20202;-87
2022/12/25 07:45:20;;;;;;;1.80;1.67;;;2.70;97.30;;;;;;4953980;28;20214;-83
2022/12/25 07:47:46;;;;;;;1.90;1.30;;;2.70;97.30;;;;;;4953548;28;20717;-82
2022/12/25 07:50:11;;;;;;;2.37;2.13;;;2.80;97.30;;;;;;4966553;28;20294;-85
2022/12/25 07:52:37;;;;;;;4.30;2.40;;;2.80;97.30;;;;;;4960817;29;20250;-87
2022/12/25 07:55:02;;;;;;;3.43;2.43;;;2.80;97.30;;;;;;4970144;28;20266;-82
2022/12/25 07:57:28;;;;;;;3.83;3.63;;;2.90;97.30;;;;;;4963318;28;20266;-82
2022/12/25 07:59:54;;;;;;;3.23;2.47;;;2.90;97.30;;;;;;4976005;28;20781;-85
2022/12/25 08:02:26;;;;;;;7.23;2.87;;;3.00;97.30;;;;;;4961908;28;20190;-87
2022/12/25 08:04:53;;;;;;;5.17;4.70;;;3.00;97.30;;;;;;4960248;28;20210;-87
2022/12/25 08:07:18;;;;;;;1.93;1.80;;;3.10;97.30;;;;;;4961853;28;20547;-86
2022/12/25 08:09:44;;;;;;;3.83;2.20;;;3.10;97.30;;;;;;4977719;28;20996;-86
2022/12/25 08:12:09;;;;;;;1.53;1.43;;;3.20;97.30;;;;;;4955284;28;20198;-85
2022/12/25 08:14:34;;;;;;;12.73;2.40;;;3.20;97.30;;;;;;4975956;28;20237;-87
2022/12/25 08:17:00;;;;;;;6.00;1.70;;;3.30;97.30;;;;;;4960962;28;20195;-82
2022/12/25 08:19:25;;;;;;;2.70;2.27;;;3.30;97.30;;;;;;4958941;28;20198;-86
2022/12/25 08:21:51;;;;;;;2.87;2.70;;;3.40;97.30;;;;;;4958814;28;20219;-83
2022/12/25 08:24:16;;;;;;;1.70;1.60;;;3.40;97.30;;;;;;4972657;28;20197;-85
2022/12/25 08:26:42;;;;;;;3.00;2.17;;;3.50;97.30;;;;;;4958331;28;20217;-86
2022/12/25 08:29:07;;;;;;;2.20;1.97;;;3.60;97.30;;;;;;4955795;28;20289;-84
2022/12/25 08:31:33;;;;;;;4.20;3.13;;;3.70;97.30;;;;;;4957532;28;20191;-84
2022/12/25 08:34:01;;;;;;;2.23;2.03;;;3.80;97.30;;;;;;4952481;28;20202;-87
2022/12/25 08:36:27;;;;;;;1.67;1.67;;;3.90;97.30;;;;;;4975105;28;20469;-81
2022/12/25 08:38:53;;;;;;;10.33;3.07;;;4.00;97.30;;;;;;4957226;28;20489;-81
2022/12/25 08:41:19;;;;;;;2.60;2.40;;;4.10;97.30;;;;;;4969046;28;20724;-83
2022/12/25 08:43:44;;;;;;;3.57;3.17;;;4.20;97.30;;;;;;4959978;28;20441;-86
2022/12/25 08:46:10;;;;;;;2.67;2.47;;;4.30;97.30;;;;;;4971293;28;20202;-83
2022/12/25 08:48:36;;;;;;;4.40;1.93;;;4.40;97.30;;;;;;4961399;28;20219;-84
2022/12/25 08:51:01;;;;;;;2.53;2.33;;;4.50;97.30;;;;;;4957883;28;21004;-82
2022/12/25 08:53:27;;;;;;;5.50;2.27;;;4.60;97.30;;;;;;4953916;28;20221;-87
2022/12/25 08:56:02;;;;;;;2.13;1.97;;;4.70;97.30;;;;;;4960071;28;20234;-86
2022/12/25 08:58:28;;;;;;;2.37;2.17;;;4.80;97.30;;;;;;4957026;28;20358;-83
2022/12/25 09:00:53;;;;;;;3.33;2.00;;;4.90;97.30;;;;;;4955972;28;20530;-88
2022/12/25 09:03:19;;;;;;;2.67;2.47;;;5.00;97.30;;;;;;4954925;28;20187;-85
2022/12/25 09:05:44;;;;;;;2.50;2.30;;;5.00;97.30;;;;;;4966624;28;20186;-87
2022/12/25 09:08:10;;;;;;;4.90;2.60;;;5.10;97.30;;;;;;4952999;28;20190;-86
2022/12/25 09:10:36;;;;;;;1.83;1.73;;;5.20;97.30;;;;;;4972484;28;20207;-81
2022/12/25 09:13:02;;;;;;;3.63;2.93;;;5.40;97.30;;;;;;4956529;28;20709;-88
2022/12/25 09:15:27;;;;;;;2.00;1.90;;;5.60;97.30;;;;;;4957587;28;20426;-87
2022/12/25 09:17:53;;;;;;;2.30;2.17;;;5.80;97.30;;;;;;4958749;28;20426;-86
2022/12/25 09:20:18;;;;;;;2.23;1.90;;;6.00;97.30;;;;;;4971584;28;20253;-86
2022/12/25 09:22:44;;;;;;;2.80;1.63;;;6.10;97.30;;;;;;4970951;28;20205;-85
2022/12/25 09:25:10;;;;;;;2.17;1.73;;;6.40;97.30;;;;;;4970835;28;20241;-87
2022/12/25 09:27:35;;;;;;;15.40;2.37;;;6.60;97.30;;;;;;4955662;28;20190;-87
2022/12/25 09:30:01;;;;;;;3.03;2.83;;;6.70;97.30;;;;;;4978251;28;20708;-85
2022/12/25 09:32:26;;;;;;;3.13;2.20;;;6.90;97.30;;;;;;4965080;28;20210;-87
2022/12/25 09:34:52;;;;;;;10.23;3.57;;;7.00;97.30;;;;;;4954396;28;20199;-84
2022/12/25 09:37:17;;;;;;;4.30;1.97;;;7.10;97.30;;;;;;4955094;28;20619;-85
2022/12/25 09:39:42;;;;;;;2.80;2.10;;;7.10;97.30;;;;;;4970657;28;20290;-85
2022/12/25 09:42:34;;;;;;;1.90;1.80;;;7.20;97.30;;;;;;4972292;28;20189;-86
2022/12/25 09:45:13;;;;;;;2.23;2.00;;;7.30;97.30;;;;;;4961504;28;20198;-86
2022/12/25 09:47:42;;;;;;;9.17;2.50;;;7.40;97.30;;;;;;4963351;28;20441;-86
2022/12/25 09:50:18;;;;;;;2.37;2.23;;;7.50;97.30;;;;;;5004526;22;20501;-87
2022/12/25 09:52:54;;;;;;;1.30;1.20;;;7.60;97.30;;;;;;4971029;28;20468;-88
2022/12/25 09:55:25;;;;;;;4.00;1.80;;;7.60;97.30;;;;;;4975972;28;20425;-87
2022/12/25 09:57:56;;;;;;;5.33;2.00;;;7.70;97.30;;;;;;4956560;29;20560;-87
2022/12/25 10:00:26;;;;;;;1.73;1.63;;;7.80;97.30;;;;;;4947228;29;20459;-86
2022/12/25 10:03:03;;;;;;;12.83;1.27;;;7.90;97.30;;;;;;4949782;29;20887;-87
2022/12/25 10:06:06;;;;;;;23.93;2.47;;;8.10;97.30;;;;;;4953318;28;20430;-88
2022/12/25 10:09:21;;;;;;;10.13;2.80;;;8.30;97.30;;;;;;4953831;29;20426;-87
2022/12/25 10:12:02;;;;;;;2.43;2.23;;;8.60;97.30;;;;;;4949767;28;20497;-86
2022/12/25 10:14:57;;;;;;;13.80;2.60;;;8.80;97.30;;;;;;4950576;29;20485;-85
2022/12/25 10:17:38;;;;;;;1.97;1.40;;;9.00;97.30;;;;;;4956411;28;20502;-86
2022/12/25 10:20:19;;;;;;;2.23;2.03;;;9.20;97.30;;;;;;4956189;28;20542;-87
2022/12/25 10:22:49;;;;;;;3.93;2.30;;;9.40;97.30;;;;;;4952486;29;20443;-90
2022/12/25 10:25:22;;;;;;;1.43;1.33;;;9.60;97.30;;;;;;4956243;28;20438;-87
2022/12/25 10:28:03;;;;;;;1.87;1.80;;;9.70;97.30;;;;;;4938006;29;20436;-85
2022/12/25 10:30:29;;;;;;;1.57;1.47;;;9.90;97.30;;;;;;4951106;28;20459;-87
2022/12/25 10:32:56;;;;;;;2.60;2.13;;;10.10;97.30;;;;;;4951985;29;20505;-85
2022/12/25 10:35:27;;;;;;;3.40;1.30;;;10.10;97.30;;;;;;4952732;29;20957;-85
2022/12/25 10:38:05;;;;;;;1.20;1.10;;;10.10;97.30;;;;;;4954505;29;20470;-87
2022/12/25 10:40:37;;;;;;;2.50;2.30;;;10.20;97.30;;;;;;4955256;28;20470;-86
2022/12/25 10:43:11;;;;;;;1.47;1.37;;;10.30;97.30;;;;;;4953200;28;20496;-86
2022/12/25 10:45:44;;;;;;;8.23;2.20;;;10.30;97.30;;;;;;4955696;28;20410;-87
2022/12/25 10:48:20;;;;;;;4.10;2.10;;;10.30;97.30;;;;;;4949956;28;20440;-87
2022/12/25 10:50:46;;;;;;;7.30;2.40;;;10.40;97.30;;;;;;4951858;28;20485;-86
2022/12/25 10:53:24;;;;;;;3.93;2.50;;;10.60;97.30;;;;;;4953578;28;20466;-87
2022/12/25 10:56:02;;;;;;;16.23;2.40;;;10.50;97.30;;;;;;4954021;28;20689;-86
2022/12/25 10:58:28;;;;;;;10.20;2.40;;;10.40;97.30;;;;;;4954465;29;20518;-87
2022/12/25 11:00:57;;;;;;;1.97;1.87;;;10.40;97.30;;;;;;4955587;28;20427;-86
2022/12/25 11:03:27;;;;;;;1.37;1.03;;;10.30;97.30;;;;;;4952417;28;20462;-86
2022/12/25 11:05:53;;;;;;;1.77;1.73;;;10.20;97.30;;;;;;4954870;29;20430;-87
2022/12/25 11:08:22;;;;;;;1.50;1.40;;;10.20;97.30;;;;;;4955792;28;20443;-87
2022/12/25 11:10:53;;;;;;;2.40;1.50;;;10.20;97.30;;;;;;4954590;28;20478;-88
2022/12/25 11:13:27;;;;;;;1.70;1.60;;;10.20;97.30;;;;;;4950021;29;20557;-87
2022/12/25 11:16:23;;;;;;;1.87;1.57;;;10.20;97.30;;;;;;4949728;29;20447;-87
2022/12/25 11:18:52;;;;;;;1.67;1.57;;;10.10;97.30;;;;;;4936025;28;20437;-87
2022/12/25 11:21:27;;;;;;;1.63;1.53;;;10.10;97.30;;;;;;4950701;29;20550;-87
2022/12/25 11:24:04;;;;;;;3.57;3.33;;;10.00;97.30;;;;;;4947859;29;20949;-87
2022/12/25 11:26:54;;;;;;;3.53;3.07;;;10.00;97.30;;;;;;4954139;28;20426;-88
2022/12/25 11:29:48;;;;;;;1.50;1.40;;;9.90;97.30;;;;;;4951366;28;20965;-87
2022/12/25 11:32:31;;;;;;;1.40;1.30;;;9.90;97.30;;;;;;4947389;29;20780;-87
2022/12/25 11:34:59;;;;;;;2.00;1.37;;;9.90;97.30;;;;;;4954932;28;20482;-86
2022/12/25 11:37:46;;;;;;;2.30;2.10;;;9.90;97.30;;;;;;4953754;28;20458;-87
2022/12/25 11:40:22;;;;;;;2.27;1.10;;;9.80;97.30;;;;;;4947577;29;20552;-87
2022/12/25 11:42:56;;;;;;;1.70;1.60;;;9.80;97.30;;;;;;4951106;29;20433;-87
2022/12/25 11:45:33;;;;;;;3.93;1.93;;;9.80;97.30;;;;;;4954039;28;21000;-87
2022/12/25 11:48:02;;;;;;;4.40;2.63;;;9.80;97.30;;;;;;4952840;28;20437;-90
2022/12/25 11:50:33;;;;;;;2.20;1.63;;;9.80;97.30;;;;;;4944713;29;20529;-87
2022/12/25 11:53:03;;;;;;;2.23;2.03;;;9.80;97.30;;;;;;4966655;28;20482;-89
2022/12/25 11:55:37;;;;;;;1.53;1.43;;;9.80;97.30;;;;;;4970953;29;20423;-88
2022/12/25 11:58:22;;;;;;;2.93;1.67;;;9.80;97.30;;;;;;4971877;29;20427;-92
2022/12/25 12:00:51;;;;;;;1.60;1.50;;;9.80;97.30;;;;;;4971942;28;20473;-91
2022/12/25 12:03:28;;;;;;;1.63;1.57;;;9.80;97.30;;;;;;4973240;28;20450;-87
2022/12/25 12:06:03;;;;;;;1.10;1.00;;;9.90;97.30;;;;;;4974035;28;20406;-89
2022/12/25 12:08:31;;;;;;;1.90;1.67;;;9.90;97.30;;;;;;4970563;28;20447;-87
2022/12/25 12:11:20;;;;;;;13.20;3.83;;;9.90;97.30;;;;;;4952593;28;20474;-87
2022/12/25 12:13:52;;;;;;;2.23;2.03;;;10.00;97.30;;;;;;4952127;29;20500;-89
2022/12/25 12:16:17;;;;;;;2.60;2.20;;;10.00;97.30;;;;;;4952282;29;20427;-87
2022/12/25 12:18:44;;;;;;;1.87;1.70;;;10.10;97.30;;;;;;4950126;28;20443;-87
2022/12/25 12:21:28;;;;;;;4.10;2.67;;;10.10;97.30;;;;;;4952525;28;20759;-86
2022/12/25 12:24:10;;;;;;;2.70;1.97;;;10.10;97.30;;;;;;4933334;29;20432;-87
2022/12/25 12:26:39;;;;;;;3.63;2.13;;;10.10;97.30;;;;;;4942457;28;20517;-86
2022/12/25 12:29:20;;;;;;;1.67;1.10;;;10.00;97.30;;;;;;4950829;29;20995;-87
2022/12/25 12:31:48;;;;;;;3.13;2.13;;;10.00;97.30;;;;;;4951474;29;20426;-87
2022/12/25 12:34:26;;;;;;;1.73;1.67;;;10.00;97.30;;;;;;4951758;28;20988;-87
2022/12/25 12:37:05;;;;;;;2.57;2.13;;;10.00;97.30;;;;;;4951964;28;20442;-87
2022/12/25 12:39:35;;;;;;;2.00;1.90;;;10.00;97.30;;;;;;4947161;28;20523;-88
2022/12/25 12:42:09;;;;;;;3.23;2.53;;;10.00;97.30;;;;;;4951893;28;20431;-88
2022/12/25 12:44:35;;;;;;;1.43;1.20;;;10.00;97.30;;;;;;4949613;29;20806;-88
2022/12/25 12:47:01;;;;;;;2.83;1.20;;;10.00;97.30;;;;;;4951422;29;20422;-88
2022/12/25 12:49:32;;;;;;;4.80;2.27;;;9.90;97.30;;;;;;4950529;28;20191;-87
2022/12/25 12:52:04;;;;;;;1.90;1.83;;;9.90;97.30;;;;;;4951732;28;20443;-87
2022/12/25 12:54:30;;;;;;;2.13;1.83;;;9.90;97.30;;;;;;4951601;28;20521;-88
2022/12/25 12:57:21;;;;;;;2.13;1.97;;;9.90;97.30;;;;;;4951566;28;20419;-87
2022/12/25 12:59:46;;;;;;;2.20;2.00;;;9.80;97.30;;;;;;4941676;29;20202;-87
2022/12/25 13:02:30;;;;;;;4.00;2.43;;;9.80;97.30;;;;;;4947363;28;20975;-87
2022/12/25 13:05:12;;;;;;;2.70;2.50;;;9.80;97.30;;;;;;4944805;29;20231;-87
2022/12/25 13:08:20;;;;;;;7.63;2.97;;;9.80;97.30;;;;;;4950260;28;20429;-87
2022/12/25 13:10:49;;;;;;;3.03;2.20;;;9.70;97.30;;;;;;4941693;28;21114;-87
2022/12/25 13:13:20;;;;;;;2.07;1.60;;;9.70;97.30;;;;;;4961346;28;20463;-87
2022/12/25 13:15:48;;;;;;;39.00;2.33;;;9.60;97.30;;;;;;4946523;29;20439;-89
2022/12/25 13:18:14;;;;;;;2.57;2.37;;;9.60;97.30;;;;;;4950905;28;20435;-89
2022/12/25 13:20:48;;;;;;;5.40;3.47;;;9.60;97.30;;;;;;4950899;28;20688;-87
2022/12/25 13:23:29;;;;;;;1.73;1.63;;;9.50;97.30;;;;;;4952736;28;20179;-87
2022/12/25 13:25:59;;;;;;;4.40;1.93;;;9.50;97.30;;;;;;4951457;28;20984;-87
2022/12/25 13:28:31;;;;;;;3.07;2.00;;;9.50;97.30;;;;;;4949133;29;20521;-87
2022/12/25 13:31:14;;;;;;;3.60;2.30;;;9.40;97.30;;;;;;4942360;29;20826;-88
2022/12/25 13:33:45;;;;;;;9.83;2.13;;;9.40;97.30;;;;;;4948848;28;20521;-87
2022/12/25 13:36:12;;;;;;;3.37;2.30;;;9.40;97.30;;;;;;4950796;28;20517;-87
2022/12/25 13:38:43;;;;;;;4.03;2.10;;;9.30;97.30;;;;;;4947331;28;20457;-88
2022/12/25 13:43:57;;;;;;;1.60;1.50;;;9.30;97.30;;;;;;4952502;29;20458;-87
2022/12/25 13:46:26;;;;;;;5.03;2.50;;;9.30;97.30;;;;;;4952538;28;20419;-88
2022/12/25 13:48:58;;;;;;;1.97;1.87;;;9.30;97.30;;;;;;4943809;28;20445;-88
2022/12/25 13:51:24;;;;;;;9.93;3.90;;;9.30;97.30;;;;;;4950839;29;20541;-87
2022/12/25 13:53:50;;;;;;;7.40;5.17;;;9.30;97.30;;;;;;4950956;28;20556;-88
2022/12/25 13:56:15;;;;;;;5.90;3.63;;;9.20;97.30;;;;;;4949361;28;20554;-87
2022/12/25 13:58:42;;;;;;;5.50;2.70;;;9.20;97.30;;;;;;4944354;28;20184;-87
2022/12/25 14:01:10;;;;;;;1.80;1.70;;;9.20;97.30;;;;;;4950915;28;20692;-88
2022/12/25 14:03:40;;;;;;;1.83;1.70;;;9.20;97.30;;;;;;4950000;29;20435;-88
2022/12/25 14:06:15;;;;;;;3.13;2.50;;;9.20;97.30;;;;;;4948889;28;20961;-88
2022/12/25 14:08:41;;;;;;;3.30;2.87;;;9.20;97.30;;;;;;4948474;28;20460;-86
2022/12/25 14:11:07;;;;;;;3.73;3.53;;;9.10;97.30;;;;;;4950280;28;20977;-89
2022/12/25 14:13:37;;;;;;;3.80;2.00;;;9.10;97.30;;;;;;4950836;28;20309;-87
2022/12/25 14:16:03;;;;;;;2.27;1.60;;;9.20;97.30;;;;;;4946752;28;20436;-87
2022/12/25 14:18:29;;;;;;;2.70;2.37;;;9.10;97.30;;;;;;4946883;28;20929;-87
2022/12/25 14:21:02;;;;;;;1.93;1.87;;;9.10;97.30;;;;;;4947929;28;20453;-85
2022/12/25 14:23:42;;;;;;;1.23;1.13;;;9.10;97.30;;;;;;4941040;29;20531;-87
2022/12/25 14:26:27;;;;;;;1.77;1.67;;;9.10;97.30;;;;;;4945876;29;20439;-86
2022/12/25 14:29:22;;;;;;;4.93;1.60;;;9.00;97.30;;;;;;4951372;29;20442;-86
2022/12/25 14:31:48;;;;;;;1.30;1.20;;;9.00;97.30;;;;;;4936875;29;20439;-89
2022/12/25 14:34:21;;;;;;;2.93;2.30;;;8.90;97.30;;;;;;4945573;28;20546;-88
2022/12/25 14:36:47;;;;;;;5.77;2.47;;;8.90;97.30;;;;;;4952084;28;20179;-86
2022/12/25 14:39:35;;;;;;;1.97;1.87;;;8.90;97.30;;;;;;4966813;28;20496;-87
2022/12/25 14:42:17;;;;;;;3.60;3.30;;;8.80;97.30;;;;;;4963667;28;20537;-88
2022/12/25 14:44:42;;;;;;;8.17;3.90;;;8.80;97.30;;;;;;4952250;29;20801;-89
2022/12/25 14:47:19;;;;;;;3.00;2.53;;;8.80;97.30;;;;;;4954089;28;20439;-88
2022/12/25 14:49:46;;;;;;;3.67;3.20;;;8.90;97.30;;;;;;4942356;28;20230;-87
2022/12/25 14:52:28;;;;;;;3.73;2.00;;;8.90;97.30;;;;;;4951855;28;20489;-87
2022/12/25 14:55:00;;;;;;;1.83;1.77;;;8.90;97.30;;;;;;4951666;29;20448;-87
2022/12/25 14:57:37;;;;;;;1.83;1.73;;;8.80;97.30;;;;;;4953385;28;20422;-87
2022/12/25 15:00:19;;;;;;;8.37;2.13;;;8.80;97.30;;;;;;4952796;28;20462;-88
2022/12/25 15:02:47;;;;;;;3.90;3.17;;;8.80;97.30;;;;;;4951932;28;20443;-89
2022/12/25 15:05:31;;;;;;;3.20;1.77;;;8.80;97.30;;;;;;4953946;29;20436;-86
2022/12/25 15:08:05;;;;;;;3.13;2.93;;;8.80;97.30;;;;;;4953498;28;20426;-89
2022/12/25 15:10:31;;;;;;;7.37;3.97;;;8.80;97.30;;;;;;4953334;28;21116;-88
2022/12/25 15:12:57;;;;;;;3.83;2.83;;;8.90;97.30;;;;;;4951816;28;20487;-89
2022/12/25 15:15:22;;;;;;;3.80;2.30;;;8.90;97.30;;;;;;4950972;28;20525;-87
2022/12/25 15:17:49;;;;;;;2.40;2.20;;;8.90;97.30;;;;;;4952791;28;20241;-88
2022/12/25 15:20:14;;;;;;;2.73;1.60;;;9.00;97.30;;;;;;4952043;28;20266;-87